Time;durP1;ratioP1;P1;durP2;ratioP2;P2;SDS_P1;SDS_P2;PMS_P1;PMS_P2;Temp;Humidity;BMP_temperature;BMP_pressure;BME280_temperature;BME280_humidity;BME280_pressure;Samples;Min_cycle;Max_cycle;Signal;HPM_P1;HPM_P2
2021/01/23 00:00:19;;;;;;;35.57;25.47;;;;;;;1.12;93.97;99160.25;1699150;84;21570;-70
2021/01/23 00:02:46;;;;;;;37.80;25.43;;;;;;;1.09;93.94;99157.51;1675757;84;21214;-71
2021/01/23 00:05:15;;;;;;;42.53;23.70;;;;;;;1.06;93.97;99157.08;1673803;85;21161;-71
2021/01/23 00:07:42;;;;;;;29.23;20.07;;;;;;;1.03;94.22;99160.13;1673869;85;21209;-72
2021/01/23 00:10:12;;;;;;;29.10;21.00;;;;;;;1.03;94.29;99160.95;1675847;84;21050;-73
2021/01/23 00:12:40;;;;;;;30.90;21.13;;;;;;;1.00;94.25;99161.37;1675002;85;21169;-72
2021/01/23 00:15:09;;;;;;;27.93;16.20;;;;;;;0.92;94.29;99152.77;1681275;84;21587;-75
2021/01/23 00:17:37;;;;;;;38.80;21.87;;;;;;;0.89;94.40;99157.98;1703477;84;21635;-69
2021/01/23 00:20:08;;;;;;;30.67;21.17;;;;;;;0.90;94.30;99155.64;1702619;84;21570;-76
2021/01/23 00:22:37;;;;;;;31.80;22.57;;;;;;;0.90;94.35;99153.00;1702469;84;21176;-72
2021/01/23 00:25:06;;;;;;;28.80;20.20;;;;;;;0.92;94.37;99156.23;1702190;82;21109;-72
2021/01/23 00:27:34;;;;;;;31.43;22.47;;;;;;;0.90;94.31;99151.67;1702363;84;22124;-71
2021/01/23 00:30:02;;;;;;;26.83;18.63;;;;;;;0.86;94.37;99151.23;1701222;84;21610;-73
2021/01/23 00:32:32;;;;;;;29.00;19.43;;;;;;;0.85;94.47;99156.75;1682229;84;21149;-72
2021/01/23 00:34:59;;;;;;;28.70;18.50;;;;;;;0.81;94.63;99161.64;1696652;84;21010;-71
2021/01/23 00:37:27;;;;;;;25.83;20.17;;;;;;;0.79;94.64;99149.60;1702415;84;21149;-70
2021/01/23 00:39:54;;;;;;;26.03;18.73;;;;;;;0.75;94.71;99154.48;1702302;84;22214;-70
2021/01/23 00:42:22;;;;;;;26.97;19.83;;;;;;;0.73;94.73;99155.19;1702279;84;21058;-69
2021/01/23 00:44:49;;;;;;;26.03;20.57;;;;;;;0.75;94.71;99153.17;1702285;84;21172;-72
2021/01/23 00:47:17;;;;;;;25.57;16.87;;;;;;;0.75;94.79;99151.02;1675192;84;21173;-74
2021/01/23 00:49:46;;;;;;;26.47;18.37;;;;;;;0.76;94.78;99144.22;1684255;84;21213;-76
2021/01/23 00:52:13;;;;;;;31.13;21.37;;;;;;;0.73;94.66;99147.25;1674097;85;21220;-73
2021/01/23 00:54:40;;;;;;;29.80;20.20;;;;;;;0.70;94.79;99144.19;1673961;85;21161;-76
2021/01/23 00:57:09;;;;;;;34.57;19.63;;;;;;;0.69;94.88;99147.34;1674123;85;21133;-76
2021/01/23 00:59:37;;;;;;;31.63;22.43;;;;;;;0.67;95.01;99146.70;1697330;84;21160;-75
2021/01/23 01:02:05;;;;;;;28.10;19.43;;;;;;;0.69;95.04;99151.81;1674836;84;21124;-72
2021/01/23 01:04:36;;;;;;;26.57;19.33;;;;;;;0.73;95.09;99151.21;1702154;84;40197;-72
2021/01/23 01:07:04;;;;;;;29.17;24.47;;;;;;;0.74;95.06;99139.62;1702546;84;21188;-74
2021/01/23 01:09:32;;;;;;;29.07;19.77;;;;;;;0.72;94.91;99144.28;1700405;83;21140;-72
2021/01/23 01:12:01;;;;;;;28.63;19.80;;;;;;;0.72;94.96;99140.31;1696715;84;21197;-74
2021/01/23 01:14:28;;;;;;;29.73;20.30;;;;;;;0.70;94.94;99129.13;1687443;84;21181;-73
2021/01/23 01:16:55;;;;;;;23.80;17.90;;;;;;;0.67;94.99;99132.16;1682572;84;21232;-72
2021/01/23 01:19:23;;;;;;;23.20;17.73;;;;;;;0.62;95.27;99128.51;1672931;84;21106;-70
2021/01/23 01:21:50;;;;;;;24.17;15.67;;;;;;;0.64;95.42;99133.07;1668604;85;20978;-72
2021/01/23 01:24:17;;;;;;;30.00;17.97;;;;;;;0.67;95.43;99131.37;1668587;86;21133;-73
2021/01/23 01:26:46;;;;;;;29.57;21.67;;;;;;;0.67;95.45;99124.75;1668677;86;21164;-70
2021/01/23 01:29:13;;;;;;;30.13;19.93;;;;;;;0.69;95.48;99130.14;1672912;84;21272;-73
2021/01/23 01:31:41;;;;;;;29.97;20.53;;;;;;;0.68;95.58;99128.50;1686401;84;21129;-73
2021/01/23 01:34:08;;;;;;;28.43;17.93;;;;;;;0.71;95.60;99132.09;1682213;84;21141;-73
2021/01/23 01:36:36;;;;;;;28.00;19.17;;;;;;;0.70;95.64;99133.61;1668661;86;21172;-76
2021/01/23 01:39:04;;;;;;;29.57;20.10;;;;;;;0.71;95.74;99138.70;1668845;84;21180;-75
2021/01/23 01:41:35;;;;;;;28.83;20.40;;;;;;;0.74;95.69;99142.77;1668783;86;21574;-72
2021/01/23 01:44:06;;;;;;;31.00;20.70;;;;;;;0.81;95.68;99148.91;1668929;86;21164;-71
2021/01/23 01:46:40;;;;;;;33.50;23.40;;;;;;;0.87;95.49;99152.05;1687789;84;21212;-73
2021/01/23 01:49:09;;;;;;;26.27;19.17;;;;;;;0.83;94.94;99146.86;1683417;84;21181;-75
2021/01/23 01:51:38;;;;;;;27.63;19.70;;;;;;;0.77;94.91;99135.74;1684102;84;21177;-72
2021/01/23 01:54:05;;;;;;;27.23;18.00;;;;;;;0.78;94.98;99144.81;1668728;85;21165;-71
2021/01/23 01:56:32;;;;;;;23.47;17.90;;;;;;;0.81;94.86;99148.91;1685091;84;21054;-71
2021/01/23 01:59:00;;;;;;;23.97;16.33;;;;;;;0.80;94.72;99144.62;1696570;84;21133;-71
2021/01/23 02:01:31;;;;;;;27.87;21.07;;;;;;;0.73;94.68;99138.48;1696035;84;21161;-72
2021/01/23 02:04:20;;;;;;;21.77;14.97;;;;;;;0.71;94.72;99137.38;1696904;84;21125;-73
2021/01/23 02:07:11;;;;;;;28.10;17.43;;;;;;;0.74;94.82;99138.80;1696907;84;22307;-71
2021/01/23 02:09:44;;;;;;;41.77;28.10;;;;;;;0.74;94.68;99136.97;1682226;84;21042;-71
2021/01/23 02:12:44;;;;;;;33.63;21.52;;;;;;;0.69;94.70;99136.75;1666337;86;21026;-73
2021/01/23 02:15:18;;;;;;;45.57;28.00;;;;;;;0.69;94.69;99134.61;1670060;85;21134;-73
2021/01/23 02:17:51;;;;;;;36.77;24.43;;;;;;;0.66;94.84;99131.05;1633131;85;21203;-71
2021/01/23 02:20:56;;;;;;;41.23;26.02;;;;;;;0.69;94.89;99127.50;1666485;85;21299;-69
2021/01/23 02:23:30;;;;;;;31.33;23.90;;;;;;;0.67;94.90;99127.41;1664326;85;22025;-71
2021/01/23 02:26:14;;;;;;;30.53;23.53;;;;;;;0.63;94.97;99131.44;1656565;85;22172;-71
2021/01/23 02:29:19;;;;;;;29.27;19.30;;;;;;;0.65;95.03;99130.73;1672860;85;21156;-73
2021/01/23 02:31:50;;;;;;;26.30;17.97;;;;;;;0.62;94.84;99131.97;1655889;85;21153;-71
2021/01/23 02:34:21;;;;;;;26.00;18.43;;;;;;;0.59;94.70;99131.03;1647166;87;21238;-71
2021/01/23 02:36:48;;;;;;;22.10;15.27;;;;;;;0.58;94.68;99139.16;1647591;87;21243;-71
2021/01/23 02:39:16;;;;;;;24.87;16.37;;;;;;;0.57;94.80;99141.02;1647568;86;21698;-70
2021/01/23 02:41:44;;;;;;;25.37;18.97;;;;;;;0.57;94.86;99137.05;1625577;86;21174;-71
2021/01/23 02:44:11;;;;;;;25.40;19.60;;;;;;;0.58;94.96;99142.62;1607837;89;21145;-71
2021/01/23 02:46:39;;;;;;;26.57;17.47;;;;;;;0.58;94.91;99144.44;1647528;87;21206;-71
2021/01/23 02:49:08;;;;;;;25.00;17.90;;;;;;;0.54;94.66;99136.60;1647446;87;21178;-72
2021/01/23 02:51:53;;;;;;;27.07;19.27;;;;;;;0.53;94.81;99124.41;1625039;87;21165;-72
2021/01/23 02:54:49;;;;;;;27.70;17.50;;;;;;;0.50;94.90;99122.14;1647986;86;21158;-71
2021/01/23 02:57:19;;;;;;;31.33;20.83;;;;;;;0.42;95.17;99125.30;1661014;86;21153;-71
2021/01/23 02:59:53;;;;;;;23.67;15.17;;;;;;;0.39;95.34;99120.88;1661096;86;21037;-71
2021/01/23 03:02:20;;;;;;;23.63;17.83;;;;;;;0.30;95.80;99118.93;1660987;86;21107;-71
2021/01/23 03:04:48;;;;;;;22.07;16.53;;;;;;;0.29;95.98;99131.02;1649110;86;21567;-71
2021/01/23 03:07:15;;;;;;;25.87;17.47;;;;;;;0.32;95.97;99136.75;1647428;87;21186;-71
2021/01/23 03:09:43;;;;;;;25.73;17.57;;;;;;;0.35;95.88;99144.78;1647541;86;21541;-73
2021/01/23 03:12:12;;;;;;;25.63;19.57;;;;;;;0.32;95.73;99147.83;1647520;86;21219;-73
2021/01/23 03:14:40;;;;;;;28.63;19.97;;;;;;;0.27;95.75;99149.75;1652512;85;21157;-70
2021/01/23 03:17:07;;;;;;;26.10;19.17;;;;;;;0.27;95.83;99148.92;1676126;85;21190;-73
2021/01/23 03:19:36;;;;;;;29.40;22.47;;;;;;;0.28;95.91;99150.56;1676912;85;21012;-70
2021/01/23 03:22:03;;;;;;;28.73;19.40;;;;;;;0.26;95.89;99146.78;1675742;85;21623;-71
2021/01/23 03:24:31;;;;;;;22.00;16.60;;;;;;;0.29;96.02;99147.70;1674995;85;21603;-71
2021/01/23 03:26:58;;;;;;;25.57;17.13;;;;;;;0.34;95.97;99151.08;1674738;85;21150;-71
2021/01/23 03:29:26;;;;;;;26.10;17.50;;;;;;;0.29;96.00;99154.81;1667446;85;21048;-71
2021/01/23 03:31:54;;;;;;;22.90;17.70;;;;;;;0.28;96.03;99150.56;1647835;85;21198;-71
2021/01/23 03:34:23;;;;;;;23.87;14.87;;;;;;;0.31;96.06;99155.45;1648019;85;21213;-71
2021/01/23 03:36:50;;;;;;;23.23;16.27;;;;;;;0.34;96.04;99153.22;1647411;87;21210;-72
2021/01/23 03:39:18;;;;;;;26.53;18.73;;;;;;;0.32;95.98;99152.61;1647313;87;21186;-72
2021/01/23 03:41:45;;;;;;;22.67;17.43;;;;;;;0.28;96.02;99151.89;1650433;85;21659;-71
2021/01/23 03:44:13;;;;;;;26.77;16.37;;;;;;;0.22;96.14;99147.37;1674671;85;21185;-71
2021/01/23 03:46:40;;;;;;;24.30;18.20;;;;;;;0.16;96.34;99137.08;1658869;85;21166;-72
2021/01/23 03:49:08;;;;;;;24.63;16.17;;;;;;;0.19;96.41;99143.81;1647318;87;21218;-71
2021/01/23 03:51:35;;;;;;;27.00;19.07;;;;;;;0.20;96.43;99142.27;1647304;87;21031;-71
2021/01/23 03:54:04;;;;;;;25.60;18.33;;;;;;;0.20;96.43;99145.42;1652319;85;21785;-70
2021/01/23 03:56:33;;;;;;;29.23;18.80;;;;;;;0.16;96.67;99148.16;1674275;85;21015;-72
2021/01/23 03:59:03;;;;;;;28.03;20.07;;;;;;;0.17;96.78;99154.58;1675182;85;21663;-70
2021/01/23 04:01:31;;;;;;;24.40;16.47;;;;;;;0.20;96.85;99156.81;1675986;85;21385;-70
2021/01/23 04:03:58;;;;;;;32.93;19.97;;;;;;;0.19;96.92;99148.56;1671658;85;21611;-72
2021/01/23 04:06:26;;;;;;;32.13;22.03;;;;;;;0.16;96.96;99150.80;1674898;85;21150;-72
2021/01/23 04:08:53;;;;;;;36.90;21.20;;;;;;;0.15;97.02;99147.83;1672829;85;21581;-71
2021/01/23 04:11:21;;;;;;;45.57;26.10;;;;;;;0.19;97.17;99155.71;1674718;85;21142;-71
2021/01/23 04:13:48;;;;;;;48.03;25.33;;;;;;;0.20;97.18;99150.20;1674811;85;22623;-68
2021/01/23 04:16:15;;;;;;;49.40;27.80;;;;;;;0.16;97.20;99151.61;1674031;85;21198;-70
2021/01/23 04:18:43;;;;;;;43.90;25.67;;;;;;;0.15;97.31;99155.77;1674705;85;21079;-70
2021/01/23 04:21:11;;;;;;;38.50;24.83;;;;;;;0.11;97.38;99152.70;1674458;85;21619;-70
2021/01/23 04:23:39;;;;;;;31.07;20.03;;;;;;;0.11;97.46;99150.56;1674916;85;21123;-70
2021/01/23 04:26:07;;;;;;;31.93;22.03;;;;;;;0.16;97.51;99155.58;1658139;85;22239;-69
2021/01/23 04:28:36;;;;;;;29.63;18.60;;;;;;;0.19;97.42;99152.53;1647291;87;21169;-70
2021/01/23 04:31:03;;;;;;;28.50;18.23;;;;;;;0.13;97.21;99145.41;1647598;85;21939;-72
2021/01/23 04:33:34;;;;;;;28.10;19.20;;;;;;;0.11;97.19;99146.60;1647438;87;22057;-70
2021/01/23 04:36:05;;;;;;;30.13;22.70;;;;;;;0.04;97.29;99143.94;1648176;85;21178;-71
2021/01/23 04:38:33;;;;;;;28.30;17.97;;;;;;;0.05;97.39;99142.13;1647435;87;21273;-71
2021/01/23 04:41:01;;;;;;;26.50;18.10;;;;;;;0.03;97.53;99138.34;1647334;87;21181;-78
2021/01/23 04:43:30;;;;;;;26.10;16.97;;;;;;;-0.01;97.68;99140.56;1647525;87;21138;-72
2021/01/23 04:45:57;;;;;;;28.40;17.77;;;;;;;0.01;97.76;99144.31;1649803;85;21110;-71
2021/01/23 04:48:24;;;;;;;30.47;20.27;;;;;;;0.02;97.65;99143.81;1647707;87;21185;-71
2021/01/23 04:50:52;;;;;;;25.30;16.93;;;;;;;-0.02;97.65;99153.97;1647536;87;21137;-70
2021/01/23 04:53:19;;;;;;;26.00;16.57;;;;;;;-0.03;97.80;99159.75;1624771;87;21193;-69
2021/01/23 04:55:47;;;;;;;25.73;20.27;;;;;;;0.02;97.71;99160.99;1662699;85;21225;-71
2021/01/23 04:58:14;;;;;;;25.43;16.90;;;;;;;0.07;97.65;99160.72;1656629;85;21172;-70
2021/01/23 05:00:41;;;;;;;37.57;21.93;;;;;;;0.09;97.55;99153.42;1647489;87;21139;-70
2021/01/23 05:03:09;;;;;;;27.10;19.07;;;;;;;0.09;97.49;99164.00;1647509;86;21119;-71
2021/01/23 05:05:37;;;;;;;27.23;17.40;;;;;;;0.07;97.42;99151.97;1647442;87;21182;-70
2021/01/23 05:08:12;;;;;;;28.73;18.27;;;;;;;0.04;97.43;99147.91;1649047;85;21205;-68
2021/01/23 05:10:42;;;;;;;25.87;16.53;;;;;;;0.03;97.49;99158.67;1647346;87;21154;-70
2021/01/23 05:13:14;;;;;;;24.77;19.47;;;;;;;0.04;97.64;99156.34;1661071;85;21574;-71
2021/01/23 05:15:43;;;;;;;22.55;18.75;;;;;;;0.03;97.67;99159.48;1697000;84;21222;-71
2021/01/23 05:18:12;;;;;;;29.70;19.90;;;;;;;0.05;97.66;99169.34;1696736;84;21161;-71
2021/01/23 05:20:50;;;;;;;23.93;17.20;;;;;;;0.09;97.61;99157.89;1696745;84;21233;-69
2021/01/23 05:23:28;;;;;;;25.40;19.20;;;;;;;0.09;97.67;99165.32;1696625;84;21151;-70
2021/01/23 05:26:00;;;;;;;27.67;19.83;;;;;;;0.10;97.58;99157.68;1696362;84;21177;-71
2021/01/23 05:28:32;;;;;;;27.17;21.30;;;;;;;0.01;97.45;99162.82;1683908;84;21622;-70
2021/01/23 05:31:01;;;;;;;24.60;18.97;;;;;;;-0.02;97.52;99154.79;1668979;86;21152;-70
2021/01/23 05:33:31;;;;;;;31.00;21.60;;;;;;;-0.01;97.63;99156.42;1669326;86;21129;-70
2021/01/23 05:36:06;;;;;;;31.40;19.83;;;;;;;-0.04;97.68;99162.59;1694168;84;21121;-70
2021/01/23 05:38:43;;;;;;;37.97;20.17;;;;;;;-0.11;97.83;99163.89;1696849;84;21627;-70
2021/01/23 05:41:14;;;;;;;32.40;20.33;;;;;;;-0.08;97.90;99166.12;1697065;84;21213;-70
2021/01/23 05:43:46;;;;;;;25.60;16.57;;;;;;;-0.06;97.94;99172.55;1696976;84;21574;-70
2021/01/23 05:46:18;;;;;;;25.85;17.10;;;;;;;-0.06;97.97;99171.23;1683108;84;21152;-71
2021/01/23 05:48:49;;;;;;;33.00;19.67;;;;;;;-0.07;97.95;99170.41;1673897;84;21212;-69
2021/01/23 05:51:18;;;;;;;28.93;20.70;;;;;;;-0.05;97.96;99175.52;1696946;84;21130;-70
2021/01/23 05:53:46;;;;;;;27.57;17.40;;;;;;;-0.08;97.92;99178.02;1696944;84;21185;-69
2021/01/23 05:56:14;;;;;;;27.90;19.70;;;;;;;-0.09;98.03;99180.34;1690676;84;21615;-70
2021/01/23 05:58:43;;;;;;;27.60;20.07;;;;;;;-0.15;98.07;99182.47;1673374;84;21042;-70
2021/01/23 06:01:16;;;;;;;28.00;20.77;;;;;;;-0.12;98.12;99179.42;1681619;84;21630;-70
2021/01/23 06:03:49;;;;;;;40.15;21.12;;;;;;;-0.09;98.23;99170.28;1697088;84;21605;-71
2021/01/23 06:06:17;;;;;;;26.97;17.77;;;;;;;-0.10;98.29;99165.52;1665505;84;22329;-70
2021/01/23 06:08:51;;;;;;;32.30;20.77;;;;;;;-0.10;98.31;99157.59;1686674;84;21165;-69
2021/01/23 06:11:26;;;;;;;28.40;20.03;;;;;;;-0.12;98.25;99157.47;1697520;83;21757;-70
2021/01/23 06:13:57;;;;;;;27.87;21.87;;;;;;;-0.14;98.39;99158.97;1702078;84;21184;-70
2021/01/23 06:16:37;;;;;;;27.47;19.60;;;;;;;-0.11;98.38;99162.56;1700951;84;21156;-70
2021/01/23 06:19:10;;;;;;;32.80;19.63;;;;;;;-0.18;98.34;99160.88;1702279;84;21279;-70
2021/01/23 06:21:49;;;;;;;34.17;22.27;;;;;;;-0.25;98.50;99165.31;1689021;84;21218;-66
2021/01/23 06:24:34;;;;;;;31.03;21.07;;;;;;;-0.26;98.60;99173.74;1694584;84;21608;-69
2021/01/23 06:27:02;;;;;;;29.90;18.63;;;;;;;-0.21;98.69;99183.23;1664710;85;21148;-69
2021/01/23 06:29:41;;;;;;;28.07;19.80;;;;;;;-0.15;98.79;99190.89;1675486;84;21207;-66
2021/01/23 06:32:16;;;;;;;30.43;17.93;;;;;;;-0.15;98.66;99189.57;1692460;84;21208;-68
2021/01/23 06:34:54;;;;;;;28.97;18.33;;;;;;;-0.12;98.53;99194.46;1701718;84;21057;-66
2021/01/23 06:37:33;;;;;;;32.70;19.60;;;;;;;-0.11;98.55;99203.53;1695939;84;21164;-65
2021/01/23 06:40:25;;;;;;;29.43;21.90;;;;;;;-0.07;98.71;99202.13;1676482;84;21137;-69
2021/01/23 06:42:54;;;;;;;34.53;21.50;;;;;;;-0.01;98.56;99207.15;1691368;84;21129;-68
2021/01/23 06:45:33;;;;;;;34.77;23.23;;;;;;;-0.06;98.33;99210.38;1688781;84;21372;-69
2021/01/23 06:48:01;;;;;;;29.53;20.60;;;;;;;-0.07;98.42;99207.41;1702270;84;21621;-67
2021/01/23 06:50:40;;;;;;;29.27;20.37;;;;;;;-0.06;98.37;99212.20;1702133;84;21105;-68
2021/01/23 06:53:22;;;;;;;30.53;19.80;;;;;;;-0.07;98.40;99209.23;1702092;84;21152;-71
2021/01/23 06:55:56;;;;;;;30.57;21.43;;;;;;;-0.10;98.36;99210.95;1683356;84;21168;-67
2021/01/23 06:58:29;;;;;;;34.67;23.47;;;;;;;-0.08;98.40;99216.84;1673909;85;21305;-68
2021/01/23 07:00:57;;;;;;;;;;;;;;;-0.08;98.44;99215.52;1676671;85;21039;-67
2021/01/23 07:03:29;;;;;;;32.50;22.57;;;;;;;-0.04;98.54;99212.80;1674584;84;20564;-68
2021/01/23 07:06:02;;;;;;;31.70;20.37;;;;;;;-0.03;98.44;99208.66;1674330;85;21743;-67
2021/01/23 07:08:36;;;;;;;36.77;23.05;;;;;;;-0.06;98.34;99214.34;1674276;84;21149;-67
2021/01/23 07:11:17;;;;;;;34.20;20.62;;;;;;;-0.09;98.22;99208.09;1674029;85;21999;-68
2021/01/23 07:14:08;;;;;;;22.67;15.73;;;;;;;-0.14;98.26;99207.03;1668870;84;21204;-69
2021/01/23 07:16:40;;;;;;;27.33;18.43;;;;;;;-0.10;98.42;99205.67;1668777;86;21174;-71
2021/01/23 07:19:08;;;;;;;29.00;19.10;;;;;;;-0.04;98.41;99207.52;1668798;86;21188;-68
2021/01/23 07:21:41;;;;;;;31.10;23.07;;;;;;;0.00;98.43;99212.75;1668747;86;21159;-70
2021/01/23 07:24:09;;;;;;;32.50;24.50;;;;;;;-0.01;98.32;99207.97;1641598;86;21310;-68
2021/01/23 07:26:37;;;;;;;30.83;22.83;;;;;;;0.00;98.29;99200.33;1648183;84;21205;-68
2021/01/23 07:29:05;;;;;;;31.47;22.87;;;;;;;0.00;98.27;99200.86;1667039;84;21169;-69
2021/01/23 07:31:33;;;;;;;46.30;27.70;;;;;;;0.03;98.39;99200.45;1667116;84;21454;-66
2021/01/23 07:34:10;;;;;;;36.67;26.00;;;;;;;0.12;98.62;99204.58;1696781;84;21211;-66
2021/01/23 07:36:43;;;;;;;34.27;25.00;;;;;;;0.21;98.52;99211.34;1669682;84;21619;-68
2021/01/23 07:39:14;;;;;;;28.03;20.47;;;;;;;0.27;98.33;99215.03;1696829;84;21010;-67
2021/01/23 07:41:51;;;;;;;37.73;27.57;;;;;;;0.30;98.08;99214.13;1696954;84;21563;-68
2021/01/23 07:44:19;;;;;;;39.00;22.27;;;;;;;0.33;97.95;99215.58;1697260;84;21086;-66
2021/01/23 07:46:48;;;;;;;36.57;24.37;;;;;;;0.35;97.78;99215.69;1698568;84;21157;-67
2021/01/23 07:49:25;;;;;;;36.57;21.23;;;;;;;0.34;97.61;99216.69;1696458;84;21213;-67
2021/01/23 07:51:54;;;;;;;28.37;20.77;;;;;;;0.33;97.50;99224.84;1697077;84;21179;-68
2021/01/23 07:54:22;;;;;;;40.60;25.10;;;;;;;0.31;97.49;99225.02;1694536;84;21192;-66
2021/01/23 07:56:56;;;;;;;28.73;22.53;;;;;;;0.33;97.49;99223.52;1696816;84;21587;-73
2021/01/23 07:59:44;;;;;;;28.37;21.03;;;;;;;0.33;97.48;99216.41;1696448;84;21181;-71
2021/01/23 08:02:11;;;;;;;33.13;20.87;;;;;;;0.34;97.50;99215.36;1696920;84;21334;-70
2021/01/23 08:04:40;;;;;;;34.67;24.77;;;;;;;0.41;97.46;99210.13;1696721;84;21157;-68
2021/01/23 08:07:31;;;;;;;30.40;21.50;;;;;;;0.43;97.25;99204.93;1696844;84;21594;-70
2021/01/23 08:10:17;;;;;;;34.33;23.27;;;;;;;0.53;97.29;99207.75;1694239;84;21174;-72
2021/01/23 08:13:01;;;;;;;37.37;25.53;;;;;;;0.58;96.91;99209.27;1696758;83;21156;-68
2021/01/23 08:15:32;;;;;;;38.47;22.63;;;;;;;0.56;96.38;99213.45;1696867;84;22260;-68
2021/01/23 08:17:59;;;;;;;41.87;26.87;;;;;;;0.59;96.37;99218.84;1676464;84;21154;-70
2021/01/23 08:20:35;;;;;;;42.60;27.77;;;;;;;0.65;96.36;99236.58;1694012;82;21590;-71
2021/01/23 08:23:11;;;;;;;44.83;26.83;;;;;;;0.72;96.50;99238.77;1696801;84;21382;-70
2021/01/23 08:25:49;;;;;;;44.47;27.47;;;;;;;0.76;96.21;99240.81;1696850;84;21114;-70
2021/01/23 08:31:19;;;;;;;44.60;26.67;;;;;;;0.72;95.65;99246.16;1890680;76;22649;-69
2021/01/23 08:33:57;;;;;;;57.83;31.80;;;;;;;0.60;95.65;99260.98;1861309;77;20981;-68
2021/01/23 08:36:30;;;;;;;41.13;27.83;;;;;;;0.57;95.95;99251.31;1859636;77;21208;-69
2021/01/23 08:39:05;;;;;;;37.63;21.90;;;;;;;0.56;96.19;99254.45;1858261;77;21563;-69
2021/01/23 08:41:33;;;;;;;46.37;28.40;;;;;;;0.56;96.40;99250.99;1860333;77;21547;-69
2021/01/23 08:44:02;;;;;;;35.70;25.67;;;;;;;0.51;96.56;99242.33;1860170;77;21181;-69
2021/01/23 08:46:30;;;;;;;40.07;25.17;;;;;;;0.53;96.90;99234.20;1860191;77;20990;-69
2021/01/23 08:48:59;;;;;;;32.80;22.03;;;;;;;0.55;97.08;99226.36;1860143;77;21591;-71
2021/01/23 08:51:27;;;;;;;32.17;19.40;;;;;;;0.58;97.29;99237.05;1860114;77;20983;-70
2021/01/23 08:53:55;;;;;;;39.80;23.80;;;;;;;0.61;97.61;99232.20;1859882;77;21026;-70
2021/01/23 08:56:22;;;;;;;35.10;23.17;;;;;;;0.63;97.74;99228.83;1812015;77;21670;-70
2021/01/23 08:58:50;;;;;;;43.30;27.43;;;;;;;0.63;97.75;99232.80;1797120;79;21160;-70
2021/01/23 09:01:17;;;;;;;37.50;23.83;;;;;;;0.66;97.85;99231.61;1797050;79;21259;-70
2021/01/23 09:03:45;;;;;;;36.67;24.70;;;;;;;0.76;98.04;99233.38;1796895;79;21133;-70
2021/01/23 09:06:13;;;;;;;40.70;24.57;;;;;;;0.87;98.30;99240.22;1797860;77;21145;-68
2021/01/23 09:08:40;;;;;;;34.53;21.63;;;;;;;0.92;98.10;99241.45;1796894;79;20998;-69
2021/01/23 09:11:07;;;;;;;42.83;26.17;;;;;;;0.92;98.01;99244.10;1796984;79;21157;-69
2021/01/23 09:13:35;;;;;;;44.57;27.37;;;;;;;0.93;97.99;99241.27;1797081;79;21388;-69
2021/01/23 09:16:05;;;;;;;51.90;27.63;;;;;;;0.95;97.97;99241.08;1797539;77;21175;-73
2021/01/23 09:18:32;;;;;;;40.37;26.73;;;;;;;0.99;98.13;99229.06;1791845;79;21330;-70
2021/01/23 09:21:02;;;;;;;42.13;27.67;;;;;;;1.04;98.15;99226.14;1759508;81;21668;-70
2021/01/23 09:23:29;;;;;;;43.23;25.60;;;;;;;1.08;97.96;99227.87;1759424;81;21149;-71
2021/01/23 09:25:59;;;;;;;46.40;27.53;;;;;;;1.08;97.87;99230.52;1745366;80;21225;-70
2021/01/23 09:28:27;;;;;;;43.00;26.47;;;;;;;1.13;97.82;99226.77;1790371;80;21141;-70
2021/01/23 09:30:55;;;;;;;46.27;30.77;;;;;;;1.10;97.47;99233.29;1795215;79;21121;-70
2021/01/23 09:33:22;;;;;;;46.77;26.03;;;;;;;1.15;97.58;99234.02;1790270;78;21657;-71
2021/01/23 09:35:49;;;;;;;34.90;24.13;;;;;;;1.14;97.24;99224.43;1765805;81;21147;-74
2021/01/23 09:38:17;;;;;;;39.93;24.93;;;;;;;1.15;97.30;99232.69;1807944;78;21378;-71
2021/01/23 09:40:45;;;;;;;38.23;22.60;;;;;;;1.16;97.27;99235.62;1829042;78;21145;-71
2021/01/23 09:43:13;;;;;;;39.27;25.37;;;;;;;1.15;97.21;99228.17;1829273;78;21599;-72
2021/01/23 09:45:41;;;;;;;51.43;31.80;;;;;;;1.20;97.31;99225.75;1827377;78;21168;-75
2021/01/23 09:48:10;;;;;;;43.83;28.30;;;;;;;1.22;97.34;99222.91;1829405;78;21642;-70
2021/01/23 09:50:41;;;;;;;48.53;29.30;;;;;;;1.32;97.66;99214.06;1829297;78;21519;-73
2021/01/23 09:53:12;;;;;;;50.77;32.43;;;;;;;1.35;97.33;99212.83;1829160;78;21093;-72
2021/01/23 09:55:41;;;;;;;48.70;27.27;;;;;;;1.35;97.13;99208.86;1823772;78;21141;-71
2021/01/23 09:58:09;;;;;;;40.03;25.90;;;;;;;1.37;97.08;99206.83;1797097;78;21684;-69
2021/01/23 10:00:37;;;;;;;39.03;26.53;;;;;;;1.41;97.06;99201.43;1761309;80;21152;-74
2021/01/23 10:03:05;;;;;;;35.25;25.43;;;;;;;1.41;96.94;99200.92;1731161;81;21293;-72
2021/01/23 10:05:33;;;;;;;43.87;29.70;;;;;;;1.44;96.98;99204.48;1743932;81;21031;-69
2021/01/23 10:08:01;;;;;;;51.83;29.70;;;;;;;1.51;97.11;99208.47;1754811;81;21147;-70
2021/01/23 10:10:28;;;;;;;52.78;34.98;;;;;;;1.52;96.86;99215.41;1754771;81;21583;-74
2021/01/23 10:12:56;;;;;;;47.17;28.83;;;;;;;1.53;96.85;99221.02;1745761;81;21683;-69
2021/01/23 10:15:25;;;;;;;43.00;24.70;;;;;;;1.55;96.75;99214.98;1779335;80;21393;-70
2021/01/23 10:17:53;;;;;;;53.02;29.42;;;;;;;1.44;96.46;99218.27;1784732;79;21150;-72
2021/01/23 10:20:21;;;;;;;49.53;27.35;;;;;;;1.42;96.70;99212.34;1770586;80;20985;-70
2021/01/23 10:22:48;;;;;;;50.52;30.43;;;;;;;1.46;96.88;99216.21;1744313;81;21171;-70
2021/01/23 10:25:18;;;;;;;43.13;26.73;;;;;;;1.46;96.83;99215.70;1767782;80;21171;-73
2021/01/23 10:27:47;;;;;;;37.43;22.03;;;;;;;1.54;97.06;99223.95;1748194;81;21366;-70
2021/01/23 10:30:16;;;;;;;47.62;28.40;;;;;;;1.59;96.98;99235.58;1742495;81;21576;-69
2021/01/23 10:32:44;;;;;;;49.10;29.45;;;;;;;1.56;96.91;99233.34;1780680;80;21537;-70
2021/01/23 10:35:13;;;;;;;55.67;33.90;;;;;;;1.57;97.00;99232.33;1738844;82;21047;-70
2021/01/23 10:37:40;;;;;;;47.95;27.15;;;;;;;1.61;97.06;99230.91;1780826;80;21224;-70
2021/01/23 10:40:10;;;;;;;47.77;29.07;;;;;;;1.64;96.83;99228.34;1738862;82;22143;-69
2021/01/23 10:42:38;;;;;;;40.12;26.80;;;;;;;1.51;96.59;99222.53;1780490;80;21178;-73
2021/01/23 10:45:08;;;;;;;51.73;31.60;;;;;;;1.54;97.03;99223.95;1780981;80;21096;-69
2021/01/23 10:47:37;;;;;;;41.63;24.98;;;;;;;1.52;97.12;99220.70;1782014;80;21131;-71
2021/01/23 10:50:08;;;;;;;49.38;29.45;;;;;;;1.50;97.19;99215.59;1783275;79;21114;-70
2021/01/23 10:52:36;;;;;;;52.27;32.43;;;;;;;1.51;97.40;99208.47;1816954;78;21195;-70
2021/01/23 10:55:08;;;;;;;47.05;30.72;;;;;;;1.53;97.50;99221.02;1790388;78;21662;-70
2021/01/23 10:57:36;;;;;;;39.63;21.48;;;;;;;1.56;97.73;99212.15;1764866;80;21650;-71
2021/01/23 11:00:06;;;;;;;38.17;22.77;;;;;;;1.69;98.04;99215.30;1765634;80;21145;-74
2021/01/23 11:02:39;;;;;;;48.02;29.23;;;;;;;1.72;97.87;99205.12;1793559;79;21151;-69
2021/01/23 11:05:09;;;;;;;47.20;29.05;;;;;;;1.69;97.58;99201.53;1793502;79;21428;-71
2021/01/23 11:07:38;;;;;;;47.90;27.57;;;;;;;1.64;97.41;99195.21;1815714;78;21058;-70
2021/01/23 11:10:08;;;;;;;43.98;27.52;;;;;;;1.63;97.47;99193.61;1825764;78;21077;-70
2021/01/23 11:12:36;;;;;;;43.02;25.35;;;;;;;1.61;97.55;99192.48;1796053;78;21105;-70
2021/01/23 11:15:07;;;;;;;43.13;24.72;;;;;;;1.60;97.68;99184.72;1793281;80;21160;-77
2021/01/23 11:17:36;;;;;;;41.88;24.63;;;;;;;1.61;98.06;99178.41;1786238;78;21479;-76
2021/01/23 11:20:07;;;;;;;46.85;27.87;;;;;;;1.64;98.21;99183.28;1791937;80;21145;-74
2021/01/23 11:22:34;;;;;;;39.25;25.97;;;;;;;1.64;98.15;99184.11;1793449;80;21137;-73
2021/01/23 11:25:04;;;;;;;46.68;29.25;;;;;;;1.69;98.26;99177.69;1791907;80;21151;-73
2021/01/23 11:27:32;;;;;;;38.53;24.12;;;;;;;1.77;98.33;99175.34;1793008;78;21168;-75
2021/01/23 11:30:00;;;;;;;43.85;23.62;;;;;;;1.85;98.43;99175.63;1788806;80;21248;-74
2021/01/23 11:32:29;;;;;;;37.13;20.85;;;;;;;1.89;98.22;99183.47;1760010;80;21034;-77
2021/01/23 11:34:56;;;;;;;35.73;21.15;;;;;;;1.87;98.03;99166.44;1773214;81;21006;-75
2021/01/23 11:37:24;;;;;;;49.98;27.17;;;;;;;1.88;97.95;99168.58;1777570;80;21111;-74
2021/01/23 11:39:52;;;;;;;42.75;25.00;;;;;;;1.88;97.84;99171.23;1775496;80;21149;-75
2021/01/23 11:42:21;;;;;;;39.30;24.40;;;;;;;1.87;97.83;99174.39;1763959;80;21054;-76